sensor_id;sensor_type;location;lat;lon;timestamp;pressure;altitude;pressure_sealevel;temperature;humidity
61674;BME280;47573;43.832;5.974;2023-02-13T00:02:05;96780.34;;;20.53;65.41
61674;BME280;47573;43.832;5.974;2023-02-13T00:08:47;96777.28;;;20.41;65.12
61674;BME280;47573;43.832;5.974;2023-02-13T00:15:27;96781.78;;;20.34;65.39
61674;BME280;47573;43.832;5.974;2023-02-13T00:22:08;96780.50;;;20.30;65.61
61674;BME280;47573;43.832;5.974;2023-02-13T00:28:50;96779.19;;;20.26;65.63
61674;BME280;47573;43.832;5.974;2023-02-13T00:35:30;96767.78;;;20.16;65.67
61674;BME280;47573;43.832;5.974;2023-02-13T00:42:11;96768.84;;;20.15;65.54
61674;BME280;47573;43.832;5.974;2023-02-13T00:48:53;96774.81;;;20.11;65.51
61674;BME280;47573;43.832;5.974;2023-02-13T00:55:33;96767.63;;;20.03;65.61
61674;BME280;47573;43.832;5.974;2023-02-13T01:02:14;96760.88;;;19.99;65.58
61674;BME280;47573;43.832;5.974;2023-02-13T01:08:56;96767.72;;;19.95;65.75
61674;BME280;47573;43.832;5.974;2023-02-13T01:15:36;96776.25;;;19.92;65.77
61674;BME280;47573;43.832;5.974;2023-02-13T01:22:17;96777.00;;;19.86;65.94
61674;BME280;47573;43.832;5.974;2023-02-13T01:28:59;96791.56;;;19.85;65.85
61674;BME280;47573;43.832;5.974;2023-02-13T01:35:39;96808.22;;;19.82;65.73
61674;BME280;47573;43.832;5.974;2023-02-13T01:42:23;96788.31;;;19.75;65.78
61674;BME280;47573;43.832;5.974;2023-02-13T01:49:10;96795.13;;;19.71;65.90
61674;BME280;47573;43.832;5.974;2023-02-13T01:55:55;96793.19;;;19.65;65.85
61674;BME280;47573;43.832;5.974;2023-02-13T02:02:42;96794.19;;;19.64;65.92
61674;BME280;47573;43.832;5.974;2023-02-13T02:09:29;96794.19;;;19.64;65.69
61674;BME280;47573;43.832;5.974;2023-02-13T02:16:11;96801.66;;;19.62;65.68
61674;BME280;47573;43.832;5.974;2023-02-13T02:30:25;96799.06;;;19.54;65.69
61674;BME280;47573;43.832;5.974;2023-02-13T02:37:21;96801.09;;;19.52;65.61
61674;BME280;47573;43.832;5.974;2023-02-13T02:44:11;96807.25;;;19.46;65.57
61674;BME280;47573;43.832;5.974;2023-02-13T02:50:59;96800.53;;;19.42;65.91
61674;BME280;47573;43.832;5.974;2023-02-13T02:57:48;96797.53;;;19.37;65.75
61674;BME280;47573;43.832;5.974;2023-02-13T03:04:32;96808.38;;;19.37;65.64
61674;BME280;47573;43.832;5.974;2023-02-13T03:11:13;96803.78;;;19.37;65.67
61674;BME280;47573;43.832;5.974;2023-02-13T03:17:56;96803.34;;;19.34;65.48
61674;BME280;47573;43.832;5.974;2023-02-13T03:24:45;96814.88;;;19.27;65.59
61674;BME280;47573;43.832;5.974;2023-02-13T03:31:33;96816.25;;;19.23;65.69
61674;BME280;47573;43.832;5.974;2023-02-13T03:38:20;96833.53;;;19.22;65.43
61674;BME280;47573;43.832;5.974;2023-02-13T03:45:03;96824.28;;;19.17;65.62
61674;BME280;47573;43.832;5.974;2023-02-13T03:51:49;96843.03;;;19.18;65.41
61674;BME280;47573;43.832;5.974;2023-02-13T03:58:35;96832.28;;;19.10;65.64
61674;BME280;47573;43.832;5.974;2023-02-13T04:05:20;96840.75;;;19.07;65.62
61674;BME280;47573;43.832;5.974;2023-02-13T04:12:05;96843.66;;;19.06;65.49
61674;BME280;47573;43.832;5.974;2023-02-13T04:18:51;96844.03;;;19.03;65.41
61674;BME280;47573;43.832;5.974;2023-02-13T04:25:32;96841.47;;;19.01;65.21
61674;BME280;47573;43.832;5.974;2023-02-13T04:32:13;96845.56;;;18.97;65.36
61674;BME280;47573;43.832;5.974;2023-02-13T04:38:54;96844.91;;;18.95;65.31
61674;BME280;47573;43.832;5.974;2023-02-13T04:45:35;96849.66;;;18.93;65.12
61674;BME280;47573;43.832;5.974;2023-02-13T04:52:15;96858.91;;;18.84;65.27
61674;BME280;47573;43.832;5.974;2023-02-13T04:58:57;96867.00;;;18.84;65.34
61674;BME280;47573;43.832;5.974;2023-02-13T05:05:38;96869.22;;;18.81;65.17
61674;BME280;47573;43.832;5.974;2023-02-13T05:12:19;96875.81;;;18.78;65.29
61674;BME280;47573;43.832;5.974;2023-02-13T05:19:00;96870.59;;;18.77;65.00
61674;BME280;47573;43.832;5.974;2023-02-13T05:25:42;96882.13;;;18.71;65.14
61674;BME280;47573;43.832;5.974;2023-02-13T05:32:22;96882.63;;;18.74;64.90
61674;BME280;47573;43.832;5.974;2023-02-13T05:39:04;96876.91;;;18.69;64.87
61674;BME280;47573;43.832;5.974;2023-02-13T05:45:45;96880.63;;;18.68;64.53
61674;BME280;47573;43.832;5.974;2023-02-13T05:52:25;96879.09;;;18.66;64.64
61674;BME280;47573;43.832;5.974;2023-02-13T05:59:07;96879.09;;;18.66;64.47
61674;BME280;47573;43.832;5.974;2023-02-13T06:05:48;96894.19;;;18.60;64.55
61674;BME280;47573;43.832;5.974;2023-02-13T06:12:28;96905.97;;;18.75;64.71
61674;BME280;47573;43.832;5.974;2023-02-13T06:19:10;96905.72;;;19.07;65.62
61674;BME280;47573;43.832;5.974;2023-02-13T06:25:51;96907.56;;;19.15;66.14
61674;BME280;47573;43.832;5.974;2023-02-13T06:32:31;96916.09;;;19.26;66.76
61674;BME280;47573;43.832;5.974;2023-02-13T06:39:13;96916.72;;;19.37;67.04
61674;BME280;47573;43.832;5.974;2023-02-13T06:45:53;96927.19;;;19.40;67.40
61674;BME280;47573;43.832;5.974;2023-02-13T06:52:34;96925.41;;;19.47;67.59
61674;BME280;47573;43.832;5.974;2023-02-13T06:59:16;96934.50;;;19.54;68.24
61674;BME280;47573;43.832;5.974;2023-02-13T07:05:56;96946.78;;;19.64;68.33
61674;BME280;47573;43.832;5.974;2023-02-13T07:12:37;96954.94;;;19.79;67.90
61674;BME280;47573;43.832;5.974;2023-02-13T07:19:19;96965.38;;;19.90;67.55
61674;BME280;47573;43.832;5.974;2023-02-13T07:26:00;96969.22;;;20.10;67.27
61674;BME280;47573;43.832;5.974;2023-02-13T07:32:43;96983.53;;;20.19;67.11
61674;BME280;47573;43.832;5.974;2023-02-13T07:39:25;96977.31;;;20.33;66.51
61674;BME280;47573;43.832;5.974;2023-02-13T07:46:05;96971.78;;;20.41;67.17
61674;BME280;47573;43.832;5.974;2023-02-13T07:52:52;96975.72;;;20.53;66.69
61674;BME280;47573;43.832;5.974;2023-02-13T07:59:34;96988.47;;;20.52;67.58
61674;BME280;47573;43.832;5.974;2023-02-13T08:06:14;96995.34;;;20.55;67.36
61674;BME280;47573;43.832;5.974;2023-02-13T08:12:56;96995.00;;;20.58;67.85
61674;BME280;47573;43.832;5.974;2023-02-13T08:19:38;97005.56;;;20.67;67.70
61674;BME280;47573;43.832;5.974;2023-02-13T08:26:18;97000.22;;;20.74;67.10
61674;BME280;47573;43.832;5.974;2023-02-13T08:32:58;97004.81;;;20.44;67.18
61674;BME280;47573;43.832;5.974;2023-02-13T08:39:40;97005.75;;;20.51;67.43
61674;BME280;47573;43.832;5.974;2023-02-13T08:46:21;96999.78;;;20.41;67.06
61674;BME280;47573;43.832;5.974;2023-02-13T08:53:01;97006.50;;;20.45;66.37
61674;BME280;47573;43.832;5.974;2023-02-13T08:59:43;97012.22;;;20.50;65.88
61674;BME280;47573;43.832;5.974;2023-02-13T09:06:24;97010.81;;;20.54;65.88
61674;BME280;47573;43.832;5.974;2023-02-13T09:13:05;97004.25;;;20.63;65.33
61674;BME280;47573;43.832;5.974;2023-02-13T09:19:47;97004.91;;;20.65;65.52
61674;BME280;47573;43.832;5.974;2023-02-13T09:26:27;97006.97;;;20.78;65.18
61674;BME280;47573;43.832;5.974;2023-02-13T09:33:09;97001.72;;;20.76;64.61
61674;BME280;47573;43.832;5.974;2023-02-13T09:39:51;97004.06;;;20.79;64.98
61674;BME280;47573;43.832;5.974;2023-02-13T09:46:34;97012.88;;;20.81;64.94
61674;BME280;47573;43.832;5.974;2023-02-13T09:53:20;97009.97;;;20.83;64.68
61674;BME280;47573;43.832;5.974;2023-02-13T10:00:06;97018.31;;;20.81;53.75
61674;BME280;47573;43.832;5.974;2023-02-13T10:06:57;97014.19;;;20.86;63.78
61674;BME280;47573;43.832;5.974;2023-02-13T10:13:49;97018.09;;;20.98;63.40
61674;BME280;47573;43.832;5.974;2023-02-13T10:20:37;97013.69;;;20.97;63.34
61674;BME280;47573;43.832;5.974;2023-02-13T10:27:21;97009.88;;;21.06;62.73
61674;BME280;47573;43.832;5.974;2023-02-13T10:34:02;97004.72;;;21.11;62.76
61674;BME280;47573;43.832;5.974;2023-02-13T10:40:57;97002.53;;;21.21;62.27
61674;BME280;47573;43.832;5.974;2023-02-13T10:47:53;97000.47;;;21.23;62.36
61674;BME280;47573;43.832;5.974;2023-02-13T10:54:55;96994.75;;;21.18;57.19
61674;BME280;47573;43.832;5.974;2023-02-13T11:01:43;96988.22;;;21.12;54.70
61674;BME280;47573;43.832;5.974;2023-02-13T11:08:31;97000.84;;;21.20;51.84
61674;BME280;47573;43.832;5.974;2023-02-13T11:15:22;96987.38;;;21.12;55.04
61674;BME280;47573;43.832;5.974;2023-02-13T11:22:07;96977.03;;;21.22;47.75
61674;BME280;47573;43.832;5.974;2023-02-13T11:28:50;96968.63;;;21.17;46.34
61674;BME280;47573;43.832;5.974;2023-02-13T11:35:34;96967.78;;;21.16;54.83
61674;BME280;47573;43.832;5.974;2023-02-13T11:42:20;96965.78;;;21.25;55.15
61674;BME280;47573;43.832;5.974;2023-02-13T11:49:03;96949.94;;;21.28;55.77
61674;BME280;47573;43.832;5.974;2023-02-13T11:55:44;96939.53;;;21.32;56.16
61674;BME280;47573;43.832;5.974;2023-02-13T12:02:27;96946.66;;;21.33;56.58
61674;BME280;47573;43.832;5.974;2023-02-13T12:09:09;96934.72;;;21.34;56.72
61674;BME280;47573;43.832;5.974;2023-02-13T12:15:57;96929.13;;;21.35;57.28
61674;BME280;47573;43.832;5.974;2023-02-13T12:22:50;96915.34;;;21.37;57.34
61674;BME280;47573;43.832;5.974;2023-02-13T12:29:58;96905.25;;;21.10;41.92
61674;BME280;47573;43.832;5.974;2023-02-13T12:36:56;96904.31;;;21.03;40.09
61674;BME280;47573;43.832;5.974;2023-02-13T12:51:01;96882.31;;;20.98;40.32
61674;BME280;47573;43.832;5.974;2023-02-13T12:57:58;96884.38;;;20.96;39.61
61674;BME280;47573;43.832;5.974;2023-02-13T13:04:52;96880.25;;;21.00;39.05
61674;BME280;47573;43.832;5.974;2023-02-13T13:11:55;96873.88;;;20.93;40.69
61674;BME280;47573;43.832;5.974;2023-02-13T13:18:49;96876.88;;;20.98;39.51
61674;BME280;47573;43.832;5.974;2023-02-13T13:25:33;96856.59;;;20.94;38.04
61674;BME280;47573;43.832;5.974;2023-02-13T13:32:18;96855.00;;;20.84;38.39
61674;BME280;47573;43.832;5.974;2023-02-13T13:39:05;96845.44;;;20.89;38.12
61674;BME280;47573;43.832;5.974;2023-02-13T13:45:51;96839.16;;;20.88;37.57
61674;BME280;47573;43.832;5.974;2023-02-13T13:53:05;96848.13;;;20.67;37.75
61674;BME280;47573;43.832;5.974;2023-02-13T14:07:22;96838.72;;;20.84;39.84
61674;BME280;47573;43.832;5.974;2023-02-13T14:21:32;96828.25;;;20.81;42.20
61674;BME280;47573;43.832;5.974;2023-02-13T14:28:21;96840.97;;;21.17;43.29
61674;BME280;47573;43.832;5.974;2023-02-13T14:35:05;96834.47;;;21.18;45.10
61674;BME280;47573;43.832;5.974;2023-02-13T14:41:58;96836.63;;;21.22;46.42
61674;BME280;47573;43.832;5.974;2023-02-13T14:48:42;96828.97;;;21.32;47.20
61674;BME280;47573;43.832;5.974;2023-02-13T14:55:30;96826.69;;;21.36;48.34
61674;BME280;47573;43.832;5.974;2023-02-13T15:02:19;96821.63;;;21.54;49.19
61674;BME280;47573;43.832;5.974;2023-02-13T15:09:04;96817.69;;;21.63;49.93
61674;BME280;47573;43.832;5.974;2023-02-13T15:15:50;96813.00;;;21.50;51.02
61674;BME280;47573;43.832;5.974;2023-02-13T15:22:34;96810.81;;;21.67;50.50
61674;BME280;47573;43.832;5.974;2023-02-13T15:29:18;96813.53;;;21.67;51.74
61674;BME280;47573;43.832;5.974;2023-02-13T15:36:00;96812.25;;;21.63;52.60
61674;BME280;47573;43.832;5.974;2023-02-13T15:42:42;96819.06;;;21.80;52.79
61674;BME280;47573;43.832;5.974;2023-02-13T15:49:24;96813.53;;;21.67;53.73
61674;BME280;47573;43.832;5.974;2023-02-13T15:56:05;96811.09;;;21.72;54.36
61674;BME280;47573;43.832;5.974;2023-02-13T16:02:47;96812.53;;;21.96;53.99
61674;BME280;47573;43.832;5.974;2023-02-13T16:09:30;96813.72;;;21.87;54.86
61674;BME280;47573;43.832;5.974;2023-02-13T16:16:11;96820.00;;;21.87;55.51
61674;BME280;47573;43.832;5.974;2023-02-13T16:22:54;96827.22;;;21.80;56.32
61674;BME280;47573;43.832;5.974;2023-02-13T16:29:36;96824.16;;;21.83;56.58
61674;BME280;47573;43.832;5.974;2023-02-13T16:36:26;96827.09;;;21.88;57.04
61674;BME280;47573;43.832;5.974;2023-02-13T16:50:27;96831.75;;;21.94;57.77
61674;BME280;47573;43.832;5.974;2023-02-13T16:57:18;96829.22;;;21.93;58.04
61674;BME280;47573;43.832;5.974;2023-02-13T17:03:59;96848.53;;;22.04;58.06
61674;BME280;47573;43.832;5.974;2023-02-13T17:11:00;96852.31;;;22.03;58.69
61674;BME280;47573;43.832;5.974;2023-02-13T17:17:41;96851.75;;;22.21;58.63
61674;BME280;47573;43.832;5.974;2023-02-13T17:24:21;96857.38;;;22.13;58.10
61674;BME280;47573;43.832;5.974;2023-02-13T17:31:09;96861.16;;;22.12;59.31
61674;BME280;47573;43.832;5.974;2023-02-13T17:37:50;96877.16;;;22.28;59.83
61674;BME280;47573;43.832;5.974;2023-02-13T17:44:31;96889.25;;;22.25;60.16
61674;BME280;47573;43.832;5.974;2023-02-13T17:51:13;96893.03;;;22.24;60.75
61674;BME280;47573;43.832;5.974;2023-02-13T17:57:55;96901.03;;;22.32;61.23
61674;BME280;47573;43.832;5.974;2023-02-13T18:04:36;96903.13;;;22.30;60.89
61674;BME280;47573;43.832;5.974;2023-02-13T18:11:17;96908.16;;;22.33;61.68
61674;BME280;47573;43.832;5.974;2023-02-13T18:17:58;96913.19;;;22.36;61.99
61674;BME280;47573;43.832;5.974;2023-02-13T18:24:40;96917.66;;;22.51;61.63
61674;BME280;47573;43.832;5.974;2023-02-13T18:31:22;96913.66;;;22.47;62.49
61674;BME280;47573;43.832;5.974;2023-02-13T18:38:03;96921.66;;;22.55;62.69
61674;BME280;47573;43.832;5.974;2023-02-13T18:44:43;96912.72;;;22.61;62.31
61674;BME280;47573;43.832;5.974;2023-02-13T18:51:26;96922.59;;;22.62;62.86
61674;BME280;47573;43.832;5.974;2023-02-13T18:58:06;96921.38;;;22.71;62.76
61674;BME280;47573;43.832;5.974;2023-02-13T19:04:47;96916.16;;;22.76;63.46
61674;BME280;47573;43.832;5.974;2023-02-13T19:11:29;96922.44;;;22.76;63.34
61674;BME280;47573;43.832;5.974;2023-02-13T19:18:10;96921.84;;;22.81;63.75
61674;BME280;47573;43.832;5.974;2023-02-13T19:24:51;96923.91;;;22.79;63.67
61674;BME280;47573;43.832;5.974;2023-02-13T19:31:33;96920.38;;;22.85;64.02
61674;BME280;47573;43.832;5.974;2023-02-13T19:38:13;96939.03;;;22.88;64.89
61674;BME280;47573;43.832;5.974;2023-02-13T19:44:53;96937.81;;;22.97;66.06
61674;BME280;47573;43.832;5.974;2023-02-13T19:51:35;96941.13;;;22.92;66.98
61674;BME280;47573;43.832;5.974;2023-02-13T19:58:16;96943.66;;;22.94;67.31
61674;BME280;47573;43.832;5.974;2023-02-13T20:04:56;96951.22;;;22.98;66.58
61674;BME280;47573;43.832;5.974;2023-02-13T20:11:39;96956.63;;;22.92;66.88
61674;BME280;47573;43.832;5.974;2023-02-13T20:18:20;96957.09;;;22.95;67.13
61674;BME280;47573;43.832;5.974;2023-02-13T20:25:00;96952.91;;;22.99;66.62
61674;BME280;47573;43.832;5.974;2023-02-13T20:31:42;96959.19;;;23.00;67.07
61674;BME280;47573;43.832;5.974;2023-02-13T20:38:23;96954.09;;;22.84;67.56
61674;BME280;47573;43.832;5.974;2023-02-13T20:45:04;96956.56;;;22.72;68.37
61674;BME280;47573;43.832;5.974;2023-02-13T20:51:46;96961.13;;;22.65;68.36
61674;BME280;47573;43.832;5.974;2023-02-13T20:58:26;96960.28;;;22.65;68.78
61674;BME280;47573;43.832;5.974;2023-02-13T21:05:07;96959.41;;;22.58;68.70
61674;BME280;47573;43.832;5.974;2023-02-13T21:11:49;96951.03;;;22.59;68.90
61674;BME280;47573;43.832;5.974;2023-02-13T21:18:29;96948.50;;;22.58;69.12
61674;BME280;47573;43.832;5.974;2023-02-13T21:25:10;96943.72;;;22.60;68.97
61674;BME280;47573;43.832;5.974;2023-02-13T21:31:52;96945.75;;;22.51;69.30
61674;BME280;47573;43.832;5.974;2023-02-13T21:38:33;96935.44;;;22.47;69.50
61674;BME280;47573;43.832;5.974;2023-02-13T21:45:14;96939.66;;;22.49;69.32
61674;BME280;47573;43.832;5.974;2023-02-13T21:51:56;96942.16;;;22.51;69.51
61674;BME280;47573;43.832;5.974;2023-02-13T21:58:38;96942.81;;;22.53;69.43
61674;BME280;47573;43.832;5.974;2023-02-13T22:05:19;96942.16;;;22.51;69.87
61674;BME280;47573;43.832;5.974;2023-02-13T22:12:01;96949.31;;;22.52;69.73
61674;BME280;47573;43.832;5.974;2023-02-13T22:18:43;96959.78;;;22.55;69.87
61674;BME280;47573;43.832;5.974;2023-02-13T22:25:24;96941.78;;;22.54;69.49
61674;BME280;47573;43.832;5.974;2023-02-13T22:32:05;96935.47;;;22.53;69.94
61674;BME280;47573;43.832;5.974;2023-02-13T22:38:46;96932.97;;;22.52;69.92
61674;BME280;47573;43.832;5.974;2023-02-13T22:45:27;96934.63;;;22.53;69.67
61674;BME280;47573;43.832;5.974;2023-02-13T22:52:09;96929.19;;;22.53;69.89
61674;BME280;47573;43.832;5.974;2023-02-13T22:58:50;96940.72;;;22.55;69.36
61674;BME280;47573;43.832;5.974;2023-02-13T23:05:30;96944.66;;;22.46;70.34
61674;BME280;47573;43.832;5.974;2023-02-13T23:12:13;96946.34;;;22.47;70.21
61674;BME280;47573;43.832;5.974;2023-02-13T23:18:54;96942.75;;;22.39;70.55
61674;BME280;47573;43.832;5.974;2023-02-13T23:25:37;96943.38;;;22.42;70.50
61674;BME280;47573;43.832;5.974;2023-02-13T23:32:19;96954.66;;;22.38;70.35
61674;BME280;47573;43.832;5.974;2023-02-13T23:39:00;96953.38;;;22.34;69.95
61674;BME280;47573;43.832;5.974;2023-02-13T23:45:40;96949.94;;;22.19;69.82
61674;BME280;47573;43.832;5.974;2023-02-13T23:52:22;96964.00;;;21.95;70.26
61674;BME280;47573;43.832;5.974;2023-02-13T23:59:02;96948.47;;;21.89;70.37
